sensor_id;sensor_type;location;lat;lon;timestamp;P1;durP1;ratioP1;P2;durP2;ratioP2
5871;SDS011;2962;51.312;7.378;2022-08-05T00:00:29;3.70;;;3.40;;
5871;SDS011;2962;51.312;7.378;2022-08-05T00:02:54;6.33;;;3.10;;
5871;SDS011;2962;51.312;7.378;2022-08-05T00:05:20;3.37;;;3.27;;
5871;SDS011;2962;51.312;7.378;2022-08-05T00:07:45;3.00;;;2.90;;
5871;SDS011;2962;51.312;7.378;2022-08-05T00:10:11;6.43;;;4.00;;
5871;SDS011;2962;51.312;7.378;2022-08-05T00:12:36;3.93;;;3.63;;
5871;SDS011;2962;51.312;7.378;2022-08-05T00:15:02;5.27;;;3.80;;
5871;SDS011;2962;51.312;7.378;2022-08-05T00:17:28;9.43;;;3.97;;
5871;SDS011;2962;51.312;7.378;2022-08-05T00:19:53;4.47;;;4.07;;
5871;SDS011;2962;51.312;7.378;2022-08-05T00:22:19;7.37;;;4.40;;
5871;SDS011;2962;51.312;7.378;2022-08-05T00:24:44;7.93;;;4.07;;
5871;SDS011;2962;51.312;7.378;2022-08-05T00:27:09;4.90;;;3.80;;
5871;SDS011;2962;51.312;7.378;2022-08-05T00:29:35;5.00;;;4.50;;
5871;SDS011;2962;51.312;7.378;2022-08-05T00:32:00;5.03;;;3.90;;
5871;SDS011;2962;51.312;7.378;2022-08-05T00:34:27;4.17;;;3.80;;
5871;SDS011;2962;51.312;7.378;2022-08-05T00:36:53;8.33;;;4.10;;
5871;SDS011;2962;51.312;7.378;2022-08-05T00:39:18;6.90;;;4.20;;
5871;SDS011;2962;51.312;7.378;2022-08-05T00:41:44;4.70;;;4.30;;
5871;SDS011;2962;51.312;7.378;2022-08-05T00:44:10;7.30;;;4.00;;
5871;SDS011;2962;51.312;7.378;2022-08-05T00:46:36;4.53;;;4.13;;
5871;SDS011;2962;51.312;7.378;2022-08-05T00:49:01;4.80;;;4.07;;
5871;SDS011;2962;51.312;7.378;2022-08-05T00:51:27;7.30;;;4.73;;
5871;SDS011;2962;51.312;7.378;2022-08-05T00:53:52;6.73;;;4.07;;
5871;SDS011;2962;51.312;7.378;2022-08-05T00:56:17;4.10;;;3.60;;
5871;SDS011;2962;51.312;7.378;2022-08-05T00:58:43;4.20;;;3.90;;
5871;SDS011;2962;51.312;7.378;2022-08-05T01:01:09;4.47;;;4.17;;
5871;SDS011;2962;51.312;7.378;2022-08-05T01:03:36;4.67;;;3.97;;
5871;SDS011;2962;51.312;7.378;2022-08-05T01:06:03;5.07;;;4.40;;
5871;SDS011;2962;51.312;7.378;2022-08-05T01:08:28;6.50;;;4.50;;
5871;SDS011;2962;51.312;7.378;2022-08-05T01:10:54;8.40;;;4.77;;
5871;SDS011;2962;51.312;7.378;2022-08-05T01:13:32;5.00;;;4.33;;
5871;SDS011;2962;51.312;7.378;2022-08-05T01:16:05;6.50;;;4.40;;
5871;SDS011;2962;51.312;7.378;2022-08-05T01:18:39;5.27;;;4.10;;
5871;SDS011;2962;51.312;7.378;2022-08-05T01:21:31;4.40;;;4.10;;
5871;SDS011;2962;51.312;7.378;2022-08-05T01:27:24;9.37;;;3.97;;
5871;SDS011;2962;51.312;7.378;2022-08-05T01:30:03;7.70;;;3.77;;
5871;SDS011;2962;51.312;7.378;2022-08-05T01:32:30;9.60;;;4.27;;
5871;SDS011;2962;51.312;7.378;2022-08-05T01:35:02;4.53;;;4.13;;
5871;SDS011;2962;51.312;7.378;2022-08-05T01:37:45;5.87;;;4.40;;
5871;SDS011;2962;51.312;7.378;2022-08-05T01:40:15;7.20;;;4.30;;
5871;SDS011;2962;51.312;7.378;2022-08-05T01:42:43;8.03;;;4.10;;
5871;SDS011;2962;51.312;7.378;2022-08-05T01:45:10;5.70;;;4.90;;
5871;SDS011;2962;51.312;7.378;2022-08-05T01:47:38;8.77;;;4.73;;
5871;SDS011;2962;51.312;7.378;2022-08-05T01:50:07;4.40;;;4.20;;
5871;SDS011;2962;51.312;7.378;2022-08-05T01:52:35;4.90;;;4.27;;
5871;SDS011;2962;51.312;7.378;2022-08-05T01:55:04;4.40;;;3.97;;
5871;SDS011;2962;51.312;7.378;2022-08-05T01:57:34;4.30;;;4.00;;
5871;SDS011;2962;51.312;7.378;2022-08-05T02:00:03;12.70;;;4.37;;
5871;SDS011;2962;51.312;7.378;2022-08-05T02:02:30;5.30;;;4.90;;
5871;SDS011;2962;51.312;7.378;2022-08-05T02:04:58;7.60;;;5.33;;
5871;SDS011;2962;51.312;7.378;2022-08-05T02:07:27;6.90;;;4.63;;
5871;SDS011;2962;51.312;7.378;2022-08-05T02:09:53;5.43;;;4.33;;
5871;SDS011;2962;51.312;7.378;2022-08-05T02:12:29;4.77;;;4.37;;
5871;SDS011;2962;51.312;7.378;2022-08-05T02:15:11;7.70;;;4.77;;
5871;SDS011;2962;51.312;7.378;2022-08-05T02:17:50;10.40;;;4.50;;
5871;SDS011;2962;51.312;7.378;2022-08-05T02:20:22;5.40;;;4.50;;
5871;SDS011;2962;51.312;7.378;2022-08-05T02:22:58;5.93;;;5.30;;
5871;SDS011;2962;51.312;7.378;2022-08-05T02:25:27;5.87;;;4.40;;
5871;SDS011;2962;51.312;7.378;2022-08-05T02:27:56;8.73;;;4.87;;
5871;SDS011;2962;51.312;7.378;2022-08-05T02:30:24;5.40;;;5.00;;
5871;SDS011;2962;51.312;7.378;2022-08-05T02:32:53;4.87;;;4.43;;
5871;SDS011;2962;51.312;7.378;2022-08-05T02:35:22;4.47;;;4.07;;
5871;SDS011;2962;51.312;7.378;2022-08-05T02:37:49;5.57;;;4.03;;
5871;SDS011;2962;51.312;7.378;2022-08-05T02:40:17;6.10;;;4.20;;
5871;SDS011;2962;51.312;7.378;2022-08-05T02:42:45;6.10;;;3.73;;
5871;SDS011;2962;51.312;7.378;2022-08-05T02:45:12;7.70;;;3.93;;
5871;SDS011;2962;51.312;7.378;2022-08-05T02:47:40;4.00;;;3.50;;
5871;SDS011;2962;51.312;7.378;2022-08-05T02:50:07;7.73;;;4.30;;
5871;SDS011;2962;51.312;7.378;2022-08-05T02:52:37;4.50;;;4.20;;
5871;SDS011;2962;51.312;7.378;2022-08-05T02:55:04;7.40;;;4.77;;
5871;SDS011;2962;51.312;7.378;2022-08-05T02:57:30;4.03;;;3.73;;
5871;SDS011;2962;51.312;7.378;2022-08-05T02:59:57;3.57;;;3.30;;
5871;SDS011;2962;51.312;7.378;2022-08-05T03:02:23;5.37;;;4.00;;
5871;SDS011;2962;51.312;7.378;2022-08-05T03:04:53;4.53;;;4.23;;
5871;SDS011;2962;51.312;7.378;2022-08-05T03:07:21;5.50;;;3.80;;
5871;SDS011;2962;51.312;7.378;2022-08-05T03:09:48;4.80;;;4.40;;
5871;SDS011;2962;51.312;7.378;2022-08-05T03:12:29;4.50;;;4.30;;
5871;SDS011;2962;51.312;7.378;2022-08-05T03:14:59;4.20;;;4.00;;
5871;SDS011;2962;51.312;7.378;2022-08-05T03:17:25;4.50;;;4.10;;
5871;SDS011;2962;51.312;7.378;2022-08-05T03:19:51;4.77;;;4.33;;
5871;SDS011;2962;51.312;7.378;2022-08-05T03:22:16;5.13;;;4.57;;
5871;SDS011;2962;51.312;7.378;2022-08-05T03:24:42;5.63;;;5.03;;
5871;SDS011;2962;51.312;7.378;2022-08-05T03:27:09;5.00;;;4.47;;
5871;SDS011;2962;51.312;7.378;2022-08-05T03:29:35;8.07;;;5.10;;
5871;SDS011;2962;51.312;7.378;2022-08-05T03:32:01;6.80;;;5.77;;
5871;SDS011;2962;51.312;7.378;2022-08-05T03:34:28;7.93;;;5.87;;
5871;SDS011;2962;51.312;7.378;2022-08-05T03:36:54;8.53;;;7.17;;
5871;SDS011;2962;51.312;7.378;2022-08-05T03:39:19;7.43;;;6.73;;
5871;SDS011;2962;51.312;7.378;2022-08-05T03:41:45;9.30;;;5.60;;
5871;SDS011;2962;51.312;7.378;2022-08-05T03:44:10;9.50;;;6.70;;
5871;SDS011;2962;51.312;7.378;2022-08-05T03:46:35;7.77;;;6.90;;
5871;SDS011;2962;51.312;7.378;2022-08-05T03:49:00;9.90;;;6.33;;
5871;SDS011;2962;51.312;7.378;2022-08-05T03:51:27;12.13;;;7.10;;
5871;SDS011;2962;51.312;7.378;2022-08-05T03:53:56;11.53;;;8.10;;
5871;SDS011;2962;51.312;7.378;2022-08-05T03:56:32;8.87;;;8.00;;
5871;SDS011;2962;51.312;7.378;2022-08-05T03:59:03;8.53;;;7.63;;
5871;SDS011;2962;51.312;7.378;2022-08-05T04:01:31;9.33;;;8.40;;
5871;SDS011;2962;51.312;7.378;2022-08-05T04:04:02;10.50;;;8.67;;
5871;SDS011;2962;51.312;7.378;2022-08-05T04:06:28;11.60;;;8.37;;
5871;SDS011;2962;51.312;7.378;2022-08-05T04:08:54;12.80;;;9.47;;
5871;SDS011;2962;51.312;7.378;2022-08-05T04:11:21;11.47;;;10.27;;
5871;SDS011;2962;51.312;7.378;2022-08-05T04:13:46;12.30;;;8.83;;
5871;SDS011;2962;51.312;7.378;2022-08-05T04:16:12;11.47;;;8.93;;
5871;SDS011;2962;51.312;7.378;2022-08-05T04:18:38;12.67;;;8.97;;
5871;SDS011;2962;51.312;7.378;2022-08-05T04:21:04;12.73;;;8.43;;
5871;SDS011;2962;51.312;7.378;2022-08-05T04:23:30;13.73;;;9.03;;
5871;SDS011;2962;51.312;7.378;2022-08-05T04:25:57;9.07;;;8.03;;
5871;SDS011;2962;51.312;7.378;2022-08-05T04:28:23;11.33;;;8.57;;
5871;SDS011;2962;51.312;7.378;2022-08-05T04:30:48;11.73;;;8.40;;
5871;SDS011;2962;51.312;7.378;2022-08-05T04:33:13;15.57;;;7.97;;
5871;SDS011;2962;51.312;7.378;2022-08-05T04:35:40;10.17;;;8.10;;
5871;SDS011;2962;51.312;7.378;2022-08-05T04:38:06;12.27;;;8.40;;
5871;SDS011;2962;51.312;7.378;2022-08-05T04:40:35;8.80;;;8.00;;
5871;SDS011;2962;51.312;7.378;2022-08-05T04:43:01;10.77;;;7.77;;
5871;SDS011;2962;51.312;7.378;2022-08-05T04:45:27;12.03;;;7.33;;
5871;SDS011;2962;51.312;7.378;2022-08-05T04:47:52;7.80;;;7.07;;
5871;SDS011;2962;51.312;7.378;2022-08-05T04:50:17;7.00;;;6.47;;
5871;SDS011;2962;51.312;7.378;2022-08-05T04:52:43;9.67;;;6.83;;
5871;SDS011;2962;51.312;7.378;2022-08-05T04:55:08;8.87;;;7.90;;
5871;SDS011;2962;51.312;7.378;2022-08-05T04:57:34;9.37;;;7.20;;
5871;SDS011;2962;51.312;7.378;2022-08-05T04:59:59;11.33;;;8.00;;
5871;SDS011;2962;51.312;7.378;2022-08-05T05:02:25;10.97;;;7.53;;
5871;SDS011;2962;51.312;7.378;2022-08-05T05:04:50;14.37;;;7.67;;
5871;SDS011;2962;51.312;7.378;2022-08-05T05:07:16;8.63;;;7.47;;
5871;SDS011;2962;51.312;7.378;2022-08-05T05:09:42;10.93;;;6.73;;
5871;SDS011;2962;51.312;7.378;2022-08-05T05:12:07;7.63;;;7.00;;
5871;SDS011;2962;51.312;7.378;2022-08-05T05:14:33;9.70;;;8.70;;
5871;SDS011;2962;51.312;7.378;2022-08-05T05:16:58;49.70;;;9.17;;
5871;SDS011;2962;51.312;7.378;2022-08-05T05:19:24;89.37;;;12.00;;
5871;SDS011;2962;51.312;7.378;2022-08-05T05:21:49;47.97;;;12.97;;
5871;SDS011;2962;51.312;7.378;2022-08-05T05:24:15;74.13;;;13.43;;
5871;SDS011;2962;51.312;7.378;2022-08-05T05:26:40;234.77;;;16.67;;
5871;SDS011;2962;51.312;7.378;2022-08-05T05:29:06;480.47;;;26.20;;
5871;SDS011;2962;51.312;7.378;2022-08-05T05:31:31;623.93;;;35.57;;
5871;SDS011;2962;51.312;7.378;2022-08-05T05:33:57;212.23;;;20.43;;
5871;SDS011;2962;51.312;7.378;2022-08-05T05:36:22;422.70;;;27.23;;
5871;SDS011;2962;51.312;7.378;2022-08-05T05:38:48;304.37;;;26.93;;
5871;SDS011;2962;51.312;7.378;2022-08-05T05:41:13;411.33;;;30.47;;
5871;SDS011;2962;51.312;7.378;2022-08-05T05:43:38;685.73;;;37.53;;
5871;SDS011;2962;51.312;7.378;2022-08-05T05:46:04;362.77;;;28.10;;
5871;SDS011;2962;51.312;7.378;2022-08-05T05:48:29;266.53;;;27.63;;
5871;SDS011;2962;51.312;7.378;2022-08-05T05:50:54;133.90;;;21.13;;
5871;SDS011;2962;51.312;7.378;2022-08-05T05:53:20;147.37;;;23.40;;
5871;SDS011;2962;51.312;7.378;2022-08-05T05:55:45;624.50;;;38.60;;
5871;SDS011;2962;51.312;7.378;2022-08-05T05:58:11;340.30;;;28.83;;
5871;SDS011;2962;51.312;7.378;2022-08-05T06:00:36;198.13;;;27.80;;
5871;SDS011;2962;51.312;7.378;2022-08-05T06:03:01;221.43;;;26.63;;
5871;SDS011;2962;51.312;7.378;2022-08-05T06:05:27;123.27;;;25.30;;
5871;SDS011;2962;51.312;7.378;2022-08-05T06:07:52;43.07;;;25.03;;
5871;SDS011;2962;51.312;7.378;2022-08-05T06:10:17;48.83;;;24.57;;
5871;SDS011;2962;51.312;7.378;2022-08-05T06:12:43;31.70;;;26.90;;
5871;SDS011;2962;51.312;7.378;2022-08-05T06:15:08;43.93;;;25.40;;
5871;SDS011;2962;51.312;7.378;2022-08-05T06:17:34;58.87;;;25.83;;
5871;SDS011;2962;51.312;7.378;2022-08-05T06:20:00;68.50;;;23.97;;
5871;SDS011;2962;51.312;7.378;2022-08-05T06:22:27;52.60;;;24.40;;
5871;SDS011;2962;51.312;7.378;2022-08-05T06:24:57;185.87;;;24.03;;
5871;SDS011;2962;51.312;7.378;2022-08-05T06:27:23;127.90;;;23.63;;
5871;SDS011;2962;51.312;7.378;2022-08-05T06:29:49;167.27;;;25.90;;
5871;SDS011;2962;51.312;7.378;2022-08-05T06:32:14;24.50;;;21.70;;
5871;SDS011;2962;51.312;7.378;2022-08-05T06:34:40;32.03;;;21.57;;
5871;SDS011;2962;51.312;7.378;2022-08-05T06:37:05;131.93;;;24.70;;
5871;SDS011;2962;51.312;7.378;2022-08-05T06:39:30;56.50;;;22.90;;
5871;SDS011;2962;51.312;7.378;2022-08-05T06:41:56;23.10;;;20.70;;
5871;SDS011;2962;51.312;7.378;2022-08-05T06:44:22;24.27;;;21.63;;
5871;SDS011;2962;51.312;7.378;2022-08-05T06:46:47;23.93;;;20.97;;
5871;SDS011;2962;51.312;7.378;2022-08-05T06:49:13;29.13;;;19.97;;
5871;SDS011;2962;51.312;7.378;2022-08-05T06:51:38;50.20;;;18.13;;
5871;SDS011;2962;51.312;7.378;2022-08-05T06:54:03;32.93;;;19.70;;
5871;SDS011;2962;51.312;7.378;2022-08-05T06:56:29;24.60;;;20.00;;
5871;SDS011;2962;51.312;7.378;2022-08-05T06:58:56;99.73;;;21.17;;
5871;SDS011;2962;51.312;7.378;2022-08-05T07:01:23;54.73;;;20.13;;
5871;SDS011;2962;51.312;7.378;2022-08-05T07:03:48;85.77;;;21.80;;
5871;SDS011;2962;51.312;7.378;2022-08-05T07:06:14;125.77;;;24.10;;
5871;SDS011;2962;51.312;7.378;2022-08-05T07:08:42;174.23;;;25.13;;
5871;SDS011;2962;51.312;7.378;2022-08-05T07:11:09;47.03;;;22.80;;
5871;SDS011;2962;51.312;7.378;2022-08-05T07:13:34;56.27;;;25.23;;
5871;SDS011;2962;51.312;7.378;2022-08-05T07:16:18;42.67;;;26.17;;
5871;SDS011;2962;51.312;7.378;2022-08-05T07:19:02;259.10;;;31.73;;
5871;SDS011;2962;51.312;7.378;2022-08-05T07:21:28;434.13;;;36.90;;
5871;SDS011;2962;51.312;7.378;2022-08-05T07:23:54;648.27;;;45.50;;
5871;SDS011;2962;51.312;7.378;2022-08-05T07:26:20;549.63;;;44.40;;
5871;SDS011;2962;51.312;7.378;2022-08-05T07:28:45;639.23;;;49.80;;
5871;SDS011;2962;51.312;7.378;2022-08-05T07:31:10;322.17;;;39.37;;
5871;SDS011;2962;51.312;7.378;2022-08-05T07:33:36;139.50;;;35.60;;
5871;SDS011;2962;51.312;7.378;2022-08-05T07:36:01;958.77;;;61.17;;
5871;SDS011;2962;51.312;7.378;2022-08-05T07:38:26;874.67;;;51.27;;
5871;SDS011;2962;51.312;7.378;2022-08-05T07:40:52;736.13;;;49.53;;
5871;SDS011;2962;51.312;7.378;2022-08-05T07:43:17;1093.60;;;62.90;;
5871;SDS011;2962;51.312;7.378;2022-08-05T07:45:42;1060.23;;;63.40;;
5871;SDS011;2962;51.312;7.378;2022-08-05T07:48:08;882.33;;;51.57;;
5871;SDS011;2962;51.312;7.378;2022-08-05T07:50:34;1390.57;;;66.87;;
5871;SDS011;2962;51.312;7.378;2022-08-05T07:53:00;1140.57;;;52.80;;
5871;SDS011;2962;51.312;7.378;2022-08-05T07:55:25;977.60;;;46.83;;
5871;SDS011;2962;51.312;7.378;2022-08-05T07:57:51;442.50;;;23.30;;
5871;SDS011;2962;51.312;7.378;2022-08-05T08:00:16;698.13;;;36.97;;
5871;SDS011;2962;51.312;7.378;2022-08-05T08:02:41;599.17;;;31.50;;
5871;SDS011;2962;51.312;7.378;2022-08-05T08:05:08;907.97;;;42.53;;
5871;SDS011;2962;51.312;7.378;2022-08-05T08:07:33;750.83;;;36.20;;
5871;SDS011;2962;51.312;7.378;2022-08-05T08:09:59;721.27;;;35.73;;
5871;SDS011;2962;51.312;7.378;2022-08-05T08:12:25;339.03;;;23.43;;
5871;SDS011;2962;51.312;7.378;2022-08-05T08:14:50;709.87;;;38.63;;
5871;SDS011;2962;51.312;7.378;2022-08-05T08:17:16;896.90;;;45.43;;
5871;SDS011;2962;51.312;7.378;2022-08-05T08:19:41;308.33;;;24.00;;
5871;SDS011;2962;51.312;7.378;2022-08-05T08:22:08;165.30;;;17.77;;
5871;SDS011;2962;51.312;7.378;2022-08-05T08:24:34;390.90;;;27.10;;
5871;SDS011;2962;51.312;7.378;2022-08-05T08:27:00;442.00;;;28.43;;
5871;SDS011;2962;51.312;7.378;2022-08-05T08:29:26;533.37;;;29.30;;
5871;SDS011;2962;51.312;7.378;2022-08-05T08:31:52;338.20;;;23.50;;
5871;SDS011;2962;51.312;7.378;2022-08-05T08:34:18;507.90;;;27.80;;
5871;SDS011;2962;51.312;7.378;2022-08-05T08:36:44;297.70;;;22.13;;
5871;SDS011;2962;51.312;7.378;2022-08-05T08:39:11;84.53;;;17.20;;
5871;SDS011;2962;51.312;7.378;2022-08-05T08:41:37;445.27;;;28.67;;
5871;SDS011;2962;51.312;7.378;2022-08-05T08:44:06;443.30;;;32.43;;
5871;SDS011;2962;51.312;7.378;2022-08-05T08:46:32;173.33;;;25.07;;
5871;SDS011;2962;51.312;7.378;2022-08-05T08:48:58;101.63;;;22.40;;
5871;SDS011;2962;51.312;7.378;2022-08-05T08:51:27;168.03;;;25.57;;
5871;SDS011;2962;51.312;7.378;2022-08-05T08:53:56;394.40;;;31.40;;
5871;SDS011;2962;51.312;7.378;2022-08-05T08:56:22;135.67;;;23.13;;
5871;SDS011;2962;51.312;7.378;2022-08-05T08:58:47;329.47;;;28.83;;
5871;SDS011;2962;51.312;7.378;2022-08-05T09:01:13;22.73;;;18.00;;
5871;SDS011;2962;51.312;7.378;2022-08-05T09:03:39;23.93;;;17.17;;
5871;SDS011;2962;51.312;7.378;2022-08-05T09:06:05;29.40;;;17.77;;
5871;SDS011;2962;51.312;7.378;2022-08-05T09:08:30;32.00;;;17.03;;
5871;SDS011;2962;51.312;7.378;2022-08-05T09:10:56;28.57;;;16.70;;
5871;SDS011;2962;51.312;7.378;2022-08-05T09:13:22;26.53;;;17.27;;
5871;SDS011;2962;51.312;7.378;2022-08-05T09:15:48;26.00;;;17.43;;
5871;SDS011;2962;51.312;7.378;2022-08-05T09:18:14;57.93;;;19.23;;
5871;SDS011;2962;51.312;7.378;2022-08-05T09:20:39;27.37;;;17.03;;
5871;SDS011;2962;51.312;7.378;2022-08-05T09:23:08;29.10;;;16.00;;
5871;SDS011;2962;51.312;7.378;2022-08-05T09:25:38;27.43;;;16.23;;
5871;SDS011;2962;51.312;7.378;2022-08-05T09:28:15;21.60;;;17.00;;
5871;SDS011;2962;51.312;7.378;2022-08-05T09:31:00;92.80;;;19.60;;
5871;SDS011;2962;51.312;7.378;2022-08-05T09:33:28;180.83;;;18.40;;
5871;SDS011;2962;51.312;7.378;2022-08-05T09:36:02;28.40;;;15.90;;
5871;SDS011;2962;51.312;7.378;2022-08-05T09:38:31;21.23;;;16.00;;
5871;SDS011;2962;51.312;7.378;2022-08-05T09:41:03;19.77;;;15.07;;
5871;SDS011;2962;51.312;7.378;2022-08-05T09:43:34;19.10;;;13.17;;
5871;SDS011;2962;51.312;7.378;2022-08-05T09:46:01;22.50;;;14.63;;
5871;SDS011;2962;51.312;7.378;2022-08-05T09:48:31;19.70;;;13.77;;
5871;SDS011;2962;51.312;7.378;2022-08-05T09:50:59;20.20;;;13.60;;
5871;SDS011;2962;51.312;7.378;2022-08-05T09:53:26;26.37;;;13.53;;
5871;SDS011;2962;51.312;7.378;2022-08-05T09:55:59;19.10;;;12.80;;
5871;SDS011;2962;51.312;7.378;2022-08-05T09:58:25;15.47;;;10.70;;
5871;SDS011;2962;51.312;7.378;2022-08-05T10:00:53;13.07;;;11.27;;
5871;SDS011;2962;51.312;7.378;2022-08-05T10:03:20;16.90;;;11.43;;
5871;SDS011;2962;51.312;7.378;2022-08-05T10:05:46;15.90;;;12.60;;
5871;SDS011;2962;51.312;7.378;2022-08-05T10:08:24;13.83;;;9.47;;
5871;SDS011;2962;51.312;7.378;2022-08-05T10:10:50;11.17;;;9.10;;
5871;SDS011;2962;51.312;7.378;2022-08-05T10:13:26;10.53;;;8.37;;
5871;SDS011;2962;51.312;7.378;2022-08-05T10:15:52;9.20;;;8.07;;
5871;SDS011;2962;51.312;7.378;2022-08-05T10:18:19;18.50;;;7.90;;
5871;SDS011;2962;51.312;7.378;2022-08-05T10:20:57;14.00;;;8.10;;
5871;SDS011;2962;51.312;7.378;2022-08-05T10:23:26;10.03;;;7.27;;
5871;SDS011;2962;51.312;7.378;2022-08-05T10:25:56;20.30;;;7.40;;
5871;SDS011;2962;51.312;7.378;2022-08-05T10:28:23;9.33;;;7.77;;
5871;SDS011;2962;51.312;7.378;2022-08-05T10:30:50;14.67;;;7.60;;
5871;SDS011;2962;51.312;7.378;2022-08-05T10:33:17;8.80;;;7.13;;
5871;SDS011;2962;51.312;7.378;2022-08-05T10:35:43;11.03;;;8.13;;
5871;SDS011;2962;51.312;7.378;2022-08-05T10:38:08;8.30;;;7.50;;
5871;SDS011;2962;51.312;7.378;2022-08-05T10:40:43;8.30;;;7.60;;
5871;SDS011;2962;51.312;7.378;2022-08-05T10:43:22;14.90;;;8.00;;
5871;SDS011;2962;51.312;7.378;2022-08-05T10:46:07;14.73;;;8.23;;
5871;SDS011;2962;51.312;7.378;2022-08-05T10:48:35;9.57;;;8.70;;
5871;SDS011;2962;51.312;7.378;2022-08-05T10:53:34;15.50;;;9.80;;
5871;SDS011;2962;51.312;7.378;2022-08-05T10:56:08;16.27;;;10.83;;
5871;SDS011;2962;51.312;7.378;2022-08-05T10:58:45;13.20;;;10.67;;
5871;SDS011;2962;51.312;7.378;2022-08-05T11:01:35;12.23;;;10.20;;
5871;SDS011;2962;51.312;7.378;2022-08-05T11:04:03;14.73;;;10.53;;
5871;SDS011;2962;51.312;7.378;2022-08-05T11:06:32;11.47;;;10.37;;
5871;SDS011;2962;51.312;7.378;2022-08-05T11:11:44;12.93;;;10.10;;
5871;SDS011;2962;51.312;7.378;2022-08-05T11:14:21;15.47;;;10.60;;
5871;SDS011;2962;51.312;7.378;2022-08-05T11:17:34;10.20;;;8.30;;
5871;SDS011;2962;51.312;7.378;2022-08-05T11:19:52;14.00;;;8.10;;
5871;SDS011;2962;51.312;7.378;2022-08-05T11:27:53;12.83;;;7.83;;
5871;SDS011;2962;51.312;7.378;2022-08-05T11:30:19;7.40;;;6.70;;
5871;SDS011;2962;51.312;7.378;2022-08-05T11:32:45;7.87;;;7.17;;
5871;SDS011;2962;51.312;7.378;2022-08-05T11:38:13;7.63;;;6.20;;
5871;SDS011;2962;51.312;7.378;2022-08-05T11:41:00;5.80;;;5.30;;
5871;SDS011;2962;51.312;7.378;2022-08-05T11:43:28;5.90;;;5.37;;
5871;SDS011;2962;51.312;7.378;2022-08-05T11:45:54;6.60;;;6.07;;
5871;SDS011;2962;51.312;7.378;2022-08-05T11:48:19;4.50;;;4.20;;
5871;SDS011;2962;51.312;7.378;2022-08-05T11:50:46;4.63;;;4.33;;
5871;SDS011;2962;51.312;7.378;2022-08-05T11:53:12;4.80;;;4.40;;
5871;SDS011;2962;51.312;7.378;2022-08-05T11:55:38;8.30;;;5.23;;
5871;SDS011;2962;51.312;7.378;2022-08-05T12:01:06;7.50;;;4.03;;
5871;SDS011;2962;51.312;7.378;2022-08-05T12:04:06;6.70;;;4.27;;
5871;SDS011;2962;51.312;7.378;2022-08-05T12:06:25;3.67;;;3.47;;
5871;SDS011;2962;51.312;7.378;2022-08-05T12:08:54;5.60;;;3.60;;
5871;SDS011;2962;51.312;7.378;2022-08-05T12:11:21;4.90;;;4.47;;
5871;SDS011;2962;51.312;7.378;2022-08-05T12:16:21;5.03;;;3.60;;
5871;SDS011;2962;51.312;7.378;2022-08-05T12:18:48;6.00;;;3.20;;
5871;SDS011;2962;51.312;7.378;2022-08-05T12:21:15;4.80;;;3.50;;
5871;SDS011;2962;51.312;7.378;2022-08-05T12:26:36;4.00;;;3.70;;
5871;SDS011;2962;51.312;7.378;2022-08-05T12:29:09;4.30;;;3.90;;
5871;SDS011;2962;51.312;7.378;2022-08-05T12:31:39;4.20;;;3.37;;
5871;SDS011;2962;51.312;7.378;2022-08-05T12:34:09;3.50;;;3.30;;
5871;SDS011;2962;51.312;7.378;2022-08-05T12:36:35;3.13;;;3.03;;
5871;SDS011;2962;51.312;7.378;2022-08-05T12:39:02;2.63;;;2.63;;
5871;SDS011;2962;51.312;7.378;2022-08-05T12:41:30;3.10;;;2.90;;
5871;SDS011;2962;51.312;7.378;2022-08-05T12:43:58;3.67;;;3.27;;
5871;SDS011;2962;51.312;7.378;2022-08-05T12:46:26;4.50;;;3.47;;
5871;SDS011;2962;51.312;7.378;2022-08-05T12:49:00;6.17;;;3.10;;
5871;SDS011;2962;51.312;7.378;2022-08-05T12:51:26;5.27;;;3.13;;
5871;SDS011;2962;51.312;7.378;2022-08-05T12:54:01;3.37;;;3.07;;
5871;SDS011;2962;51.312;7.378;2022-08-05T12:56:28;4.93;;;3.73;;
5871;SDS011;2962;51.312;7.378;2022-08-05T13:01:57;2.87;;;2.70;;
5871;SDS011;2962;51.312;7.378;2022-08-05T13:04:27;4.20;;;2.70;;
5871;SDS011;2962;51.312;7.378;2022-08-05T13:06:54;25.83;;;16.67;;
5871;SDS011;2962;51.312;7.378;2022-08-05T13:09:21;27.13;;;15.60;;
5871;SDS011;2962;51.312;7.378;2022-08-05T13:11:46;30.13;;;15.33;;
5871;SDS011;2962;51.312;7.378;2022-08-05T13:14:20;5.30;;;4.63;;
5871;SDS011;2962;51.312;7.378;2022-08-05T13:16:47;9.03;;;5.40;;
5871;SDS011;2962;51.312;7.378;2022-08-05T13:19:19;13.33;;;7.63;;
5871;SDS011;2962;51.312;7.378;2022-08-05T13:21:45;6.73;;;6.07;;
5871;SDS011;2962;51.312;7.378;2022-08-05T13:24:11;5.30;;;3.33;;
5871;SDS011;2962;51.312;7.378;2022-08-05T13:26:37;3.47;;;3.23;;
5871;SDS011;2962;51.312;7.378;2022-08-05T13:29:03;7.73;;;3.73;;
5871;SDS011;2962;51.312;7.378;2022-08-05T13:31:28;3.27;;;2.97;;
5871;SDS011;2962;51.312;7.378;2022-08-05T13:33:54;2.80;;;2.70;;
5871;SDS011;2962;51.312;7.378;2022-08-05T13:36:19;2.57;;;2.40;;
5871;SDS011;2962;51.312;7.378;2022-08-05T13:38:44;5.20;;;2.93;;
5871;SDS011;2962;51.312;7.378;2022-08-05T13:41:10;3.67;;;3.37;;
5871;SDS011;2962;51.312;7.378;2022-08-05T13:43:36;3.97;;;3.70;;
5871;SDS011;2962;51.312;7.378;2022-08-05T13:46:01;3.37;;;3.07;;
5871;SDS011;2962;51.312;7.378;2022-08-05T13:48:27;3.57;;;3.10;;
5871;SDS011;2962;51.312;7.378;2022-08-05T13:50:52;6.33;;;2.90;;
5871;SDS011;2962;51.312;7.378;2022-08-05T13:53:17;2.73;;;2.63;;
5871;SDS011;2962;51.312;7.378;2022-08-05T13:55:42;3.80;;;3.60;;
5871;SDS011;2962;51.312;7.378;2022-08-05T13:58:08;5.50;;;3.13;;
5871;SDS011;2962;51.312;7.378;2022-08-05T14:00:33;7.13;;;2.87;;
5871;SDS011;2962;51.312;7.378;2022-08-05T14:03:00;3.57;;;3.13;;
5871;SDS011;2962;51.312;7.378;2022-08-05T14:05:25;5.27;;;3.33;;
5871;SDS011;2962;51.312;7.378;2022-08-05T14:07:51;3.47;;;2.93;;
5871;SDS011;2962;51.312;7.378;2022-08-05T14:10:19;5.27;;;4.20;;
5871;SDS011;2962;51.312;7.378;2022-08-05T14:12:48;3.43;;;3.17;;
5871;SDS011;2962;51.312;7.378;2022-08-05T14:15:13;4.23;;;3.37;;
5871;SDS011;2962;51.312;7.378;2022-08-05T14:17:39;3.03;;;2.83;;
5871;SDS011;2962;51.312;7.378;2022-08-05T14:20:05;3.87;;;2.83;;
5871;SDS011;2962;51.312;7.378;2022-08-05T14:22:32;5.60;;;3.57;;
5871;SDS011;2962;51.312;7.378;2022-08-05T14:24:57;3.90;;;2.97;;
5871;SDS011;2962;51.312;7.378;2022-08-05T14:27:23;3.20;;;3.03;;
5871;SDS011;2962;51.312;7.378;2022-08-05T14:29:48;3.30;;;3.10;;
5871;SDS011;2962;51.312;7.378;2022-08-05T14:32:13;5.20;;;3.10;;
5871;SDS011;2962;51.312;7.378;2022-08-05T14:34:38;7.90;;;3.50;;
5871;SDS011;2962;51.312;7.378;2022-08-05T14:37:04;3.87;;;3.70;;
5871;SDS011;2962;51.312;7.378;2022-08-05T14:39:30;5.33;;;3.73;;
5871;SDS011;2962;51.312;7.378;2022-08-05T14:41:56;3.37;;;3.17;;
5871;SDS011;2962;51.312;7.378;2022-08-05T14:44:21;3.57;;;3.23;;
5871;SDS011;2962;51.312;7.378;2022-08-05T14:46:46;7.73;;;3.27;;
5871;SDS011;2962;51.312;7.378;2022-08-05T14:49:11;4.20;;;2.87;;
5871;SDS011;2962;51.312;7.378;2022-08-05T14:51:37;9.13;;;2.90;;
5871;SDS011;2962;51.312;7.378;2022-08-05T14:54:07;3.47;;;2.83;;
5871;SDS011;2962;51.312;7.378;2022-08-05T14:56:32;2.93;;;2.73;;
5871;SDS011;2962;51.312;7.378;2022-08-05T14:58:58;3.70;;;1.93;;
5871;SDS011;2962;51.312;7.378;2022-08-05T15:01:24;4.00;;;2.00;;
5871;SDS011;2962;51.312;7.378;2022-08-05T15:03:49;1.67;;;1.57;;
5871;SDS011;2962;51.312;7.378;2022-08-05T15:06:15;1.93;;;1.60;;
5871;SDS011;2962;51.312;7.378;2022-08-05T15:08:40;1.90;;;1.80;;
5871;SDS011;2962;51.312;7.378;2022-08-05T15:11:07;5.13;;;1.90;;
5871;SDS011;2962;51.312;7.378;2022-08-05T15:13:33;1.73;;;1.63;;
5871;SDS011;2962;51.312;7.378;2022-08-05T15:15:59;1.40;;;1.40;;
5871;SDS011;2962;51.312;7.378;2022-08-05T15:18:25;1.37;;;1.37;;
5871;SDS011;2962;51.312;7.378;2022-08-05T15:20:50;1.30;;;1.30;;
5871;SDS011;2962;51.312;7.378;2022-08-05T15:23:15;2.53;;;1.50;;
5871;SDS011;2962;51.312;7.378;2022-08-05T15:25:41;5.00;;;2.77;;
5871;SDS011;2962;51.312;7.378;2022-08-05T15:28:07;1.67;;;1.67;;
5871;SDS011;2962;51.312;7.378;2022-08-05T15:30:33;1.87;;;1.13;;